createdAt,value
2018-11-29T00:02:13.580Z,3.43
2018-11-29T00:07:08.267Z,3.45
2018-11-29T00:12:02.993Z,3.42
2018-11-29T00:16:57.686Z,3.35
2018-11-29T00:21:52.403Z,3.40
2018-11-29T00:26:47.196Z,3.41
2018-11-29T00:31:41.860Z,3.38
2018-11-29T00:36:36.552Z,3.39
2018-11-29T00:41:31.177Z,3.46
2018-11-29T00:46:25.884Z,3.49
2018-11-29T00:51:20.565Z,3.51
2018-11-29T00:56:15.233Z,3.49
2018-11-29T01:01:10.508Z,3.44
2018-11-29T01:06:05.602Z,3.47
2018-11-29T01:11:00.307Z,3.39
2018-11-29T01:15:54.952Z,3.33
2018-11-29T01:20:55.984Z,3.35
2018-11-29T01:25:50.695Z,3.38
2018-11-29T01:30:45.964Z,3.38
2018-11-29T01:35:40.639Z,3.44
2018-11-29T01:40:35.408Z,3.42
2018-11-29T01:45:30.108Z,3.47
2018-11-29T01:50:24.829Z,3.49
2018-11-29T01:55:19.534Z,3.40
2018-11-29T02:00:16.428Z,3.46
2018-11-29T02:05:12.163Z,3.54
2018-11-29T02:10:14.354Z,3.62
2018-11-29T02:15:09.414Z,3.67
2018-11-29T02:20:05.164Z,3.68
2018-11-29T02:24:59.804Z,3.41
2018-11-29T02:29:54.602Z,3.53
2018-11-29T02:34:49.407Z,3.55
2018-11-29T02:39:44.054Z,3.60
2018-11-29T02:44:38.837Z,3.63
2018-11-29T02:49:33.556Z,3.66
2018-11-29T02:54:28.220Z,3.65
2018-11-29T02:59:22.918Z,3.68
2018-11-29T03:04:17.781Z,3.66
2018-11-29T03:09:12.481Z,3.67
2018-11-29T03:14:07.469Z,3.65
2018-11-29T03:19:02.174Z,3.62
2018-11-29T03:23:56.799Z,3.64
2018-11-29T03:28:51.490Z,3.53
2018-11-29T03:33:46.192Z,3.48
2018-11-29T03:38:40.852Z,3.53
2018-11-29T03:43:35.502Z,3.59
2018-11-29T03:48:30.162Z,3.61
2018-11-29T03:53:24.857Z,3.65
2018-11-29T03:58:19.536Z,3.66
2018-11-29T04:03:14.226Z,3.66
2018-11-29T04:08:08.909Z,3.64
2018-11-29T04:13:03.614Z,3.64
2018-11-29T04:17:58.280Z,3.60
2018-11-29T04:22:52.907Z,3.55
2018-11-29T04:27:47.584Z,3.56
2018-11-29T04:32:42.279Z,3.50
2018-11-29T04:37:36.971Z,3.52
2018-11-29T04:42:31.843Z,3.53
2018-11-29T04:47:26.514Z,3.52
2018-11-29T04:52:21.195Z,3.49
2018-11-29T04:57:15.840Z,3.58
2018-11-29T05:02:11.869Z,3.60
2018-11-29T05:07:05.238Z,3.43
2018-11-29T05:11:59.915Z,3.55
2018-11-29T05:16:54.835Z,3.48
2018-11-29T05:21:49.517Z,3.51
2018-11-29T05:26:44.229Z,3.57
2018-11-29T05:31:38.906Z,3.56
2018-11-29T05:36:33.538Z,3.54
2018-11-29T05:41:28.266Z,3.49
2018-11-29T05:46:23.091Z,3.51
2018-11-29T05:51:17.779Z,3.38
2018-11-29T05:56:12.468Z,3.39
2018-11-29T06:01:16.065Z,3.45
2018-11-29T06:06:11.303Z,3.46
2018-11-29T06:11:06.053Z,3.41
2018-11-29T06:16:00.787Z,3.37
2018-11-29T06:20:55.455Z,3.28
2018-11-29T06:25:50.633Z,3.31
2018-11-29T06:30:45.282Z,3.21
2018-11-29T06:35:41.505Z,3.19
2018-11-29T06:40:37.417Z,2.92
2018-11-29T06:45:32.113Z,2.95
2018-11-29T06:50:26.795Z,2.86
2018-11-29T06:55:24.039Z,2.99
2018-11-29T07:00:25.628Z,3.10
2018-11-29T07:05:20.267Z,3.12
2018-11-29T07:10:14.935Z,3.21
2018-11-29T07:15:12.744Z,3.28
2018-11-29T07:20:14.707Z,3.30
2018-11-29T07:25:10.415Z,3.27
2018-11-29T07:30:09.326Z,3.20
2018-11-29T07:35:04.167Z,3.34
2018-11-29T07:39:58.949Z,3.44
2018-11-29T07:44:53.607Z,3.37
2018-11-29T07:49:48.333Z,3.43
2018-11-29T07:54:43.018Z,3.38
2018-11-29T07:59:37.688Z,3.57
2018-11-29T08:04:32.424Z,3.57
2018-11-29T08:09:27.132Z,3.54
2018-11-29T08:14:21.849Z,3.57
2018-11-29T08:19:16.537Z,3.49
2018-11-29T08:24:11.237Z,3.61
2018-11-29T08:29:06.096Z,3.71
2018-11-29T08:34:00.806Z,3.83
2018-11-29T08:38:55.701Z,3.94
2018-11-29T08:43:52.716Z,4.00
2018-11-29T08:48:47.390Z,4.19
2018-11-29T08:53:42.082Z,4.34
2018-11-29T08:58:37.405Z,4.42
2018-11-29T09:03:32.108Z,4.38
2018-11-29T09:08:26.780Z,4.35
2018-11-29T09:13:21.452Z,4.21
2018-11-29T09:18:16.107Z,4.30
2018-11-29T09:23:10.876Z,4.33
2018-11-29T09:28:07.016Z,4.59
2018-11-29T09:33:01.940Z,4.89
2018-11-29T09:37:59.666Z,5.14
2018-11-29T09:42:54.689Z,5.00
2018-11-29T09:47:52.280Z,5.08
2018-11-29T09:52:47.273Z,4.89
2018-11-29T09:57:42.443Z,4.93
2018-11-29T10:02:37.584Z,4.93
2018-11-29T10:07:34.740Z,5.00
2018-11-29T10:12:31.882Z,4.94
2018-11-29T10:17:26.744Z,4.97
2018-11-29T10:22:21.648Z,5.03
2018-11-29T10:27:16.496Z,5.12
2018-11-29T10:32:11.408Z,5.15
2018-11-29T10:37:06.402Z,5.34
2018-11-29T10:42:02.748Z,5.40
2018-11-29T10:46:57.744Z,5.44
2018-11-29T10:51:53.151Z,5.39
2018-11-29T10:56:48.144Z,5.21
2018-11-29T11:01:44.940Z,5.40
2018-11-29T11:06:39.899Z,5.32
2018-11-29T11:11:34.909Z,5.40
2018-11-29T11:16:29.791Z,5.43
2018-11-29T11:21:24.773Z,5.39
2018-11-29T11:26:19.784Z,5.31
2018-11-29T11:31:14.648Z,5.30
2018-11-29T11:36:09.677Z,5.46
2018-11-29T11:41:04.682Z,5.51
2018-11-29T11:45:59.575Z,5.69
2018-11-29T11:50:56.891Z,5.72
2018-11-29T11:55:53.915Z,5.69
2018-11-29T12:00:48.377Z,5.67
2018-11-29T12:05:44.673Z,5.83
2018-11-29T12:10:41.474Z,5.94
2018-11-29T12:15:37.329Z,5.98
2018-11-29T12:20:32.422Z,6.05
2018-11-29T12:25:27.374Z,6.00
2018-11-29T12:30:30.484Z,6.16
2018-11-29T12:35:27.294Z,6.21
2018-11-29T12:40:23.587Z,6.14
2018-11-29T12:45:20.457Z,6.21
2018-11-29T12:50:21.094Z,6.22
2018-11-29T12:55:18.328Z,6.03
2018-11-29T13:00:17.828Z,6.06
2018-11-29T13:05:13.101Z,5.98
2018-11-29T13:10:08.758Z,5.99
2018-11-29T13:15:03.710Z,5.98
2018-11-29T13:19:58.576Z,6.01
2018-11-29T13:24:53.772Z,5.98
2018-11-29T13:29:48.739Z,5.89
2018-11-29T13:34:43.749Z,5.84
2018-11-29T13:39:39.161Z,5.88
2018-11-29T13:44:33.997Z,5.79
2018-11-29T13:49:28.908Z,5.78
2018-11-29T13:54:23.900Z,5.71
2018-11-29T13:59:18.957Z,5.65
2018-11-29T14:04:13.864Z,5.56
2018-11-29T14:09:10.623Z,5.61
2018-11-29T14:14:07.944Z,5.52
2018-11-29T14:19:01.121Z,5.52
2018-11-29T14:23:55.971Z,5.41
2018-11-29T14:28:50.825Z,5.41
2018-11-29T14:33:45.652Z,5.39
2018-11-29T14:38:40.516Z,5.37
2018-11-29T14:43:35.394Z,5.27
2018-11-29T14:48:30.249Z,5.28
2018-11-29T14:53:25.113Z,5.22
2018-11-29T14:58:20.112Z,5.25
2018-11-29T15:03:18.316Z,5.22
2018-11-29T15:08:13.226Z,5.13
2018-11-29T15:13:10.696Z,5.10
2018-11-29T15:18:05.728Z,5.12
2018-11-29T15:23:00.672Z,5.09
2018-11-29T15:33:04.938Z,5.01
2018-11-29T15:37:59.879Z,4.99
2018-11-29T15:42:55.523Z,4.99
2018-11-29T15:47:50.956Z,4.95
2018-11-29T15:52:46.912Z,4.95
2018-11-29T15:57:42.609Z,4.96
2018-11-29T16:02:38.782Z,4.95
2018-11-29T16:07:34.950Z,4.92
2018-11-29T16:12:30.699Z,4.91
2018-11-29T16:17:26.594Z,4.93
2018-11-29T16:22:22.700Z,4.95
2018-11-29T16:27:18.706Z,4.90
2018-11-29T16:32:14.809Z,4.95
2018-11-29T16:37:10.663Z,4.90
2018-11-29T16:42:05.981Z,4.81
2018-11-29T16:47:01.947Z,4.69
2018-11-29T16:51:56.864Z,4.65
2018-11-29T16:56:51.706Z,4.66
2018-11-29T17:01:46.707Z,4.60
2018-11-29T17:06:41.797Z,4.59
2018-11-29T17:11:37.011Z,4.48
2018-11-29T17:16:31.898Z,4.39
2018-11-29T17:21:26.731Z,4.23
2018-11-29T17:26:21.737Z,4.16
2018-11-29T17:31:16.666Z,4.08
2018-11-29T17:36:11.667Z,4.15
2018-11-29T17:41:08.228Z,4.18
2018-11-29T17:46:03.202Z,4.26
2018-11-29T17:50:58.145Z,4.17
2018-11-29T17:55:53.224Z,4.22
2018-11-29T18:00:50.569Z,4.30
2018-11-29T18:05:46.153Z,4.18
2018-11-29T18:10:42.075Z,4.11
2018-11-29T18:15:37.376Z,4.08
2018-11-29T18:20:32.338Z,4.08
2018-11-29T18:25:27.669Z,4.12
2018-11-29T18:30:23.598Z,4.12
2018-11-29T18:35:18.683Z,4.11
2018-11-29T18:40:19.490Z,4.03
2018-11-29T18:45:18.193Z,4.04
2018-11-29T18:50:24.138Z,4.04
2018-11-29T18:55:20.495Z,3.93
2018-11-29T19:00:33.971Z,3.95
2018-11-29T19:06:19.012Z,3.92
2018-11-29T19:11:14.959Z,3.91
2018-11-29T19:22:35.550Z,3.74
2018-11-29T19:27:30.715Z,3.59
2018-11-29T19:48:04.602Z,3.82
2018-11-29T19:53:00.635Z,3.76
2018-11-29T19:57:55.867Z,3.76
2018-11-29T20:02:52.863Z,3.72
2018-11-29T20:07:47.779Z,3.65
2018-11-29T20:12:43.070Z,3.71
2018-11-29T20:17:38.037Z,3.80
2018-11-29T20:22:32.943Z,3.85
2018-11-29T20:27:27.741Z,3.86
2018-11-29T20:32:22.696Z,3.88
2018-11-29T20:37:17.699Z,3.89
2018-11-29T20:42:12.678Z,3.91
2018-11-29T20:47:08.000Z,3.83
2018-11-29T20:52:02.802Z,3.91
2018-11-29T20:56:57.676Z,4.01
2018-11-29T21:01:52.697Z,3.88
2018-11-29T21:08:00.331Z,3.92
2018-11-29T21:12:59.826Z,3.95
2018-11-29T21:24:48.192Z,4.10
2018-11-29T21:29:43.173Z,4.13
2018-11-29T21:34:38.106Z,4.12
2018-11-29T21:39:33.174Z,4.13
2018-11-29T21:44:28.079Z,4.12
2018-11-29T21:49:23.042Z,4.00
2018-11-29T21:54:17.924Z,4.08
2018-11-29T21:59:12.736Z,4.14
2018-11-29T22:04:07.719Z,4.03
2018-11-29T22:09:02.790Z,3.92
2018-11-29T22:13:57.749Z,4.00
2018-11-29T22:18:52.648Z,4.08
2018-11-29T22:23:49.006Z,4.10
2018-11-29T22:28:44.625Z,3.98
2018-11-29T22:33:40.275Z,4.05
2018-11-29T22:38:35.714Z,4.00
2018-11-29T22:43:36.277Z,4.02
2018-11-29T22:48:39.459Z,4.07
2018-11-29T22:53:34.714Z,4.10
2018-11-29T22:58:39.016Z,4.06
2018-11-29T23:03:35.856Z,4.00
2018-11-29T23:08:32.567Z,3.86
2018-11-29T23:13:35.697Z,3.94
2018-11-29T23:18:31.646Z,3.98
2018-11-29T23:24:54.343Z,3.95
2018-11-29T23:34:54.313Z,3.88
2018-11-29T23:39:57.280Z,3.82
2018-11-29T23:44:52.312Z,3.88
2018-11-29T23:49:47.119Z,3.97
2018-11-29T23:54:41.947Z,4.03
2018-11-29T23:59:37.040Z,4.01
